sensor_id;sensor_type;location;lat;lon;timestamp;P1;durP1;ratioP1;P2;durP2;ratioP2
46028;SDS011;31763;48.180;7.904;2022-07-15T00:01:03;6.78;;;4.28;;
46028;SDS011;31763;48.180;7.904;2022-07-15T00:03:30;8.50;;;4.68;;
46028;SDS011;31763;48.180;7.904;2022-07-15T00:05:58;6.70;;;4.30;;
46028;SDS011;31763;48.180;7.904;2022-07-15T00:08:25;6.65;;;4.00;;
46028;SDS011;31763;48.180;7.904;2022-07-15T00:10:54;8.93;;;4.15;;
46028;SDS011;31763;48.180;7.904;2022-07-15T00:13:22;9.23;;;4.18;;
46028;SDS011;31763;48.180;7.904;2022-07-15T00:15:51;8.63;;;4.38;;
46028;SDS011;31763;48.180;7.904;2022-07-15T00:18:18;7.78;;;3.58;;
46028;SDS011;31763;48.180;7.904;2022-07-15T00:20:45;8.15;;;4.07;;
46028;SDS011;31763;48.180;7.904;2022-07-15T00:23:13;6.43;;;3.90;;
46028;SDS011;31763;48.180;7.904;2022-07-15T00:25:40;8.35;;;3.70;;
46028;SDS011;31763;48.180;7.904;2022-07-15T00:28:08;7.03;;;3.88;;
46028;SDS011;31763;48.180;7.904;2022-07-15T00:30:37;7.57;;;4.05;;
46028;SDS011;31763;48.180;7.904;2022-07-15T00:33:05;5.90;;;3.63;;
46028;SDS011;31763;48.180;7.904;2022-07-15T00:35:33;9.60;;;3.70;;
46028;SDS011;31763;48.180;7.904;2022-07-15T00:38:02;8.82;;;3.65;;
46028;SDS011;31763;48.180;7.904;2022-07-15T00:40:39;8.65;;;4.13;;
46028;SDS011;31763;48.180;7.904;2022-07-15T00:43:08;8.35;;;4.47;;
46028;SDS011;31763;48.180;7.904;2022-07-15T00:45:35;6.65;;;4.05;;
46028;SDS011;31763;48.180;7.904;2022-07-15T00:48:03;6.47;;;4.25;;
46028;SDS011;31763;48.180;7.904;2022-07-15T00:50:34;11.93;;;4.43;;
46028;SDS011;31763;48.180;7.904;2022-07-15T00:53:11;8.77;;;3.42;;
46028;SDS011;31763;48.180;7.904;2022-07-15T00:55:43;9.20;;;4.22;;
46028;SDS011;31763;48.180;7.904;2022-07-15T00:58:14;6.55;;;3.45;;
46028;SDS011;31763;48.180;7.904;2022-07-15T01:00:45;7.63;;;3.80;;
46028;SDS011;31763;48.180;7.904;2022-07-15T01:03:14;6.28;;;4.15;;
46028;SDS011;31763;48.180;7.904;2022-07-15T01:05:44;6.50;;;3.95;;
46028;SDS011;31763;48.180;7.904;2022-07-15T01:08:13;10.13;;;4.40;;
46028;SDS011;31763;48.180;7.904;2022-07-15T01:10:41;7.65;;;3.20;;
46028;SDS011;31763;48.180;7.904;2022-07-15T01:13:08;6.18;;;3.47;;
46028;SDS011;31763;48.180;7.904;2022-07-15T01:15:35;7.75;;;3.65;;
46028;SDS011;31763;48.180;7.904;2022-07-15T01:18:03;6.93;;;3.45;;
46028;SDS011;31763;48.180;7.904;2022-07-15T01:20:30;6.32;;;3.80;;
46028;SDS011;31763;48.180;7.904;2022-07-15T01:22:58;6.95;;;3.67;;
46028;SDS011;31763;48.180;7.904;2022-07-15T01:25:26;5.18;;;3.25;;
46028;SDS011;31763;48.180;7.904;2022-07-15T01:27:54;12.52;;;3.92;;
46028;SDS011;31763;48.180;7.904;2022-07-15T01:30:21;4.53;;;3.13;;
46028;SDS011;31763;48.180;7.904;2022-07-15T01:32:48;8.40;;;3.80;;
46028;SDS011;31763;48.180;7.904;2022-07-15T01:35:15;4.70;;;3.58;;
46028;SDS011;31763;48.180;7.904;2022-07-15T01:37:43;9.70;;;3.60;;
46028;SDS011;31763;48.180;7.904;2022-07-15T01:40:11;4.22;;;3.22;;
46028;SDS011;31763;48.180;7.904;2022-07-15T01:42:38;5.03;;;3.17;;
46028;SDS011;31763;48.180;7.904;2022-07-15T01:45:06;6.75;;;3.35;;
46028;SDS011;31763;48.180;7.904;2022-07-15T01:47:41;7.95;;;3.20;;
46028;SDS011;31763;48.180;7.904;2022-07-15T01:50:12;5.18;;;3.15;;
46028;SDS011;31763;48.180;7.904;2022-07-15T01:52:41;7.22;;;3.45;;
46028;SDS011;31763;48.180;7.904;2022-07-15T01:55:09;5.10;;;2.97;;
46028;SDS011;31763;48.180;7.904;2022-07-15T01:57:37;4.40;;;2.90;;
46028;SDS011;31763;48.180;7.904;2022-07-15T02:00:05;4.97;;;2.95;;
46028;SDS011;31763;48.180;7.904;2022-07-15T02:02:33;7.30;;;3.10;;
46028;SDS011;31763;48.180;7.904;2022-07-15T02:05:01;4.80;;;3.05;;
46028;SDS011;31763;48.180;7.904;2022-07-15T02:07:29;4.97;;;2.80;;
46028;SDS011;31763;48.180;7.904;2022-07-15T02:09:56;6.68;;;2.58;;
46028;SDS011;31763;48.180;7.904;2022-07-15T02:12:23;6.88;;;2.92;;
46028;SDS011;31763;48.180;7.904;2022-07-15T02:14:51;4.72;;;2.50;;
46028;SDS011;31763;48.180;7.904;2022-07-15T02:17:18;3.28;;;2.40;;
46028;SDS011;31763;48.180;7.904;2022-07-15T02:19:46;4.75;;;2.92;;
46028;SDS011;31763;48.180;7.904;2022-07-15T02:22:13;4.43;;;2.50;;
46028;SDS011;31763;48.180;7.904;2022-07-15T02:24:40;5.05;;;2.83;;
46028;SDS011;31763;48.180;7.904;2022-07-15T02:27:08;4.80;;;2.67;;
46028;SDS011;31763;48.180;7.904;2022-07-15T02:29:35;3.55;;;2.65;;
46028;SDS011;31763;48.180;7.904;2022-07-15T02:32:03;5.38;;;2.67;;
46028;SDS011;31763;48.180;7.904;2022-07-15T02:34:30;6.75;;;3.08;;
46028;SDS011;31763;48.180;7.904;2022-07-15T02:36:57;3.67;;;2.40;;
46028;SDS011;31763;48.180;7.904;2022-07-15T02:39:25;6.18;;;3.20;;
46028;SDS011;31763;48.180;7.904;2022-07-15T02:41:52;7.35;;;2.90;;
46028;SDS011;31763;48.180;7.904;2022-07-15T02:44:19;5.20;;;2.80;;
46028;SDS011;31763;48.180;7.904;2022-07-15T02:46:46;5.43;;;2.72;;
46028;SDS011;31763;48.180;7.904;2022-07-15T02:49:14;4.25;;;2.45;;
46028;SDS011;31763;48.180;7.904;2022-07-15T02:51:41;5.85;;;2.90;;
46028;SDS011;31763;48.180;7.904;2022-07-15T02:54:08;4.85;;;2.70;;
46028;SDS011;31763;48.180;7.904;2022-07-15T02:56:36;3.97;;;2.83;;
46028;SDS011;31763;48.180;7.904;2022-07-15T02:59:03;3.65;;;2.50;;
46028;SDS011;31763;48.180;7.904;2022-07-15T03:01:31;5.00;;;2.60;;
46028;SDS011;31763;48.180;7.904;2022-07-15T03:03:58;5.97;;;2.70;;
46028;SDS011;31763;48.180;7.904;2022-07-15T03:06:26;7.20;;;3.10;;
46028;SDS011;31763;48.180;7.904;2022-07-15T03:08:53;4.03;;;2.83;;
46028;SDS011;31763;48.180;7.904;2022-07-15T03:11:21;4.43;;;2.63;;
46028;SDS011;31763;48.180;7.904;2022-07-15T03:13:48;4.70;;;2.40;;
46028;SDS011;31763;48.180;7.904;2022-07-15T03:16:15;6.05;;;2.67;;
46028;SDS011;31763;48.180;7.904;2022-07-15T03:18:42;4.57;;;2.70;;
46028;SDS011;31763;48.180;7.904;2022-07-15T03:21:10;7.25;;;3.05;;
46028;SDS011;31763;48.180;7.904;2022-07-15T03:23:37;5.05;;;2.67;;
46028;SDS011;31763;48.180;7.904;2022-07-15T03:26:05;7.15;;;2.33;;
46028;SDS011;31763;48.180;7.904;2022-07-15T03:28:33;5.57;;;2.38;;
46028;SDS011;31763;48.180;7.904;2022-07-15T03:31:01;4.00;;;2.22;;
46028;SDS011;31763;48.180;7.904;2022-07-15T03:33:28;6.95;;;2.75;;
46028;SDS011;31763;48.180;7.904;2022-07-15T03:35:55;5.10;;;2.35;;
46028;SDS011;31763;48.180;7.904;2022-07-15T03:38:23;5.45;;;2.35;;
46028;SDS011;31763;48.180;7.904;2022-07-15T03:40:50;4.82;;;2.40;;
46028;SDS011;31763;48.180;7.904;2022-07-15T03:43:17;6.25;;;2.45;;
46028;SDS011;31763;48.180;7.904;2022-07-15T03:45:44;4.88;;;2.45;;
46028;SDS011;31763;48.180;7.904;2022-07-15T03:48:12;5.20;;;2.28;;
46028;SDS011;31763;48.180;7.904;2022-07-15T03:50:39;4.40;;;2.75;;
46028;SDS011;31763;48.180;7.904;2022-07-15T03:53:06;6.05;;;2.90;;
46028;SDS011;31763;48.180;7.904;2022-07-15T03:55:33;5.90;;;2.70;;
46028;SDS011;31763;48.180;7.904;2022-07-15T03:58:02;6.18;;;2.97;;
46028;SDS011;31763;48.180;7.904;2022-07-15T04:00:30;4.05;;;2.58;;
46028;SDS011;31763;48.180;7.904;2022-07-15T04:02:57;7.68;;;2.90;;
46028;SDS011;31763;48.180;7.904;2022-07-15T04:05:25;4.63;;;2.88;;
46028;SDS011;31763;48.180;7.904;2022-07-15T04:07:52;5.25;;;2.58;;
46028;SDS011;31763;48.180;7.904;2022-07-15T04:10:19;6.38;;;3.03;;
46028;SDS011;31763;48.180;7.904;2022-07-15T04:12:47;8.13;;;2.45;;
46028;SDS011;31763;48.180;7.904;2022-07-15T04:15:14;3.35;;;2.65;;
46028;SDS011;31763;48.180;7.904;2022-07-15T04:17:41;4.18;;;2.90;;
46028;SDS011;31763;48.180;7.904;2022-07-15T04:20:09;5.05;;;2.75;;
46028;SDS011;31763;48.180;7.904;2022-07-15T04:22:39;5.15;;;2.75;;
46028;SDS011;31763;48.180;7.904;2022-07-15T04:25:11;5.55;;;2.53;;
46028;SDS011;31763;48.180;7.904;2022-07-15T04:27:42;3.33;;;2.33;;
46028;SDS011;31763;48.180;7.904;2022-07-15T04:30:10;5.38;;;2.38;;
46028;SDS011;31763;48.180;7.904;2022-07-15T04:32:39;6.05;;;2.90;;
46028;SDS011;31763;48.180;7.904;2022-07-15T04:35:07;6.65;;;2.67;;
46028;SDS011;31763;48.180;7.904;2022-07-15T04:37:34;5.85;;;2.28;;
46028;SDS011;31763;48.180;7.904;2022-07-15T04:40:02;4.43;;;2.50;;
46028;SDS011;31763;48.180;7.904;2022-07-15T04:42:29;5.78;;;2.55;;
46028;SDS011;31763;48.180;7.904;2022-07-15T04:44:57;5.38;;;2.58;;
46028;SDS011;31763;48.180;7.904;2022-07-15T04:47:24;5.93;;;2.60;;
46028;SDS011;31763;48.180;7.904;2022-07-15T04:49:51;6.13;;;2.67;;
46028;SDS011;31763;48.180;7.904;2022-07-15T04:52:42;3.90;;;2.58;;
46028;SDS011;31763;48.180;7.904;2022-07-15T04:55:09;5.82;;;2.70;;
46028;SDS011;31763;48.180;7.904;2022-07-15T04:57:37;8.77;;;2.67;;
46028;SDS011;31763;48.180;7.904;2022-07-15T05:00:05;7.00;;;2.88;;
46028;SDS011;31763;48.180;7.904;2022-07-15T05:02:32;3.40;;;2.67;;
46028;SDS011;31763;48.180;7.904;2022-07-15T05:05:00;4.90;;;2.72;;
46028;SDS011;31763;48.180;7.904;2022-07-15T05:07:27;6.13;;;2.38;;
46028;SDS011;31763;48.180;7.904;2022-07-15T05:09:55;5.68;;;2.78;;
46028;SDS011;31763;48.180;7.904;2022-07-15T05:12:22;7.43;;;3.05;;
46028;SDS011;31763;48.180;7.904;2022-07-15T05:14:49;5.25;;;2.80;;
46028;SDS011;31763;48.180;7.904;2022-07-15T05:17:16;5.93;;;2.90;;
46028;SDS011;31763;48.180;7.904;2022-07-15T05:19:43;6.00;;;2.70;;
46028;SDS011;31763;48.180;7.904;2022-07-15T05:22:11;5.05;;;2.65;;
46028;SDS011;31763;48.180;7.904;2022-07-15T05:24:38;4.80;;;2.70;;
46028;SDS011;31763;48.180;7.904;2022-07-15T05:27:05;5.10;;;3.10;;
46028;SDS011;31763;48.180;7.904;2022-07-15T05:29:33;5.90;;;2.97;;
46028;SDS011;31763;48.180;7.904;2022-07-15T05:32:00;7.20;;;2.83;;
46028;SDS011;31763;48.180;7.904;2022-07-15T05:34:27;6.20;;;2.80;;
46028;SDS011;31763;48.180;7.904;2022-07-15T05:36:55;6.65;;;3.22;;
46028;SDS011;31763;48.180;7.904;2022-07-15T05:39:23;3.85;;;2.67;;
46028;SDS011;31763;48.180;7.904;2022-07-15T05:41:50;7.10;;;2.97;;
46028;SDS011;31763;48.180;7.904;2022-07-15T05:44:17;4.00;;;2.45;;
46028;SDS011;31763;48.180;7.904;2022-07-15T05:46:45;4.50;;;2.85;;
46028;SDS011;31763;48.180;7.904;2022-07-15T05:49:12;4.60;;;2.53;;
46028;SDS011;31763;48.180;7.904;2022-07-15T05:51:40;5.22;;;2.90;;
46028;SDS011;31763;48.180;7.904;2022-07-15T05:54:07;4.88;;;2.72;;
46028;SDS011;31763;48.180;7.904;2022-07-15T05:56:34;4.90;;;2.47;;
46028;SDS011;31763;48.180;7.904;2022-07-15T05:59:02;6.75;;;2.95;;
46028;SDS011;31763;48.180;7.904;2022-07-15T06:01:29;7.60;;;3.05;;
46028;SDS011;31763;48.180;7.904;2022-07-15T06:03:56;7.40;;;2.67;;
46028;SDS011;31763;48.180;7.904;2022-07-15T06:06:23;6.32;;;2.90;;
46028;SDS011;31763;48.180;7.904;2022-07-15T06:08:51;3.85;;;2.47;;
46028;SDS011;31763;48.180;7.904;2022-07-15T06:11:18;4.28;;;2.60;;
46028;SDS011;31763;48.180;7.904;2022-07-15T06:13:45;3.63;;;2.63;;
46028;SDS011;31763;48.180;7.904;2022-07-15T06:16:12;4.63;;;2.22;;
46028;SDS011;31763;48.180;7.904;2022-07-15T06:18:40;4.40;;;2.97;;
46028;SDS011;31763;48.180;7.904;2022-07-15T06:21:07;5.25;;;2.47;;
46028;SDS011;31763;48.180;7.904;2022-07-15T06:23:34;6.63;;;2.60;;
46028;SDS011;31763;48.180;7.904;2022-07-15T06:26:02;5.55;;;3.15;;
46028;SDS011;31763;48.180;7.904;2022-07-15T06:28:29;8.82;;;3.22;;
46028;SDS011;31763;48.180;7.904;2022-07-15T06:30:56;4.32;;;2.60;;
46028;SDS011;31763;48.180;7.904;2022-07-15T06:33:23;3.95;;;2.55;;
46028;SDS011;31763;48.180;7.904;2022-07-15T06:35:51;4.72;;;2.80;;
46028;SDS011;31763;48.180;7.904;2022-07-15T06:38:18;7.28;;;2.85;;
46028;SDS011;31763;48.180;7.904;2022-07-15T06:40:46;4.70;;;2.50;;
46028;SDS011;31763;48.180;7.904;2022-07-15T06:43:13;5.47;;;2.80;;
46028;SDS011;31763;48.180;7.904;2022-07-15T06:45:40;4.25;;;2.60;;
46028;SDS011;31763;48.180;7.904;2022-07-15T06:48:08;3.33;;;2.60;;
46028;SDS011;31763;48.180;7.904;2022-07-15T06:50:35;5.53;;;2.58;;
46028;SDS011;31763;48.180;7.904;2022-07-15T06:53:02;7.85;;;2.35;;
46028;SDS011;31763;48.180;7.904;2022-07-15T06:55:30;6.55;;;2.70;;
46028;SDS011;31763;48.180;7.904;2022-07-15T06:57:57;3.13;;;2.47;;
46028;SDS011;31763;48.180;7.904;2022-07-15T07:00:24;4.05;;;3.15;;
46028;SDS011;31763;48.180;7.904;2022-07-15T07:02:52;4.35;;;2.97;;
46028;SDS011;31763;48.180;7.904;2022-07-15T07:05:19;6.35;;;2.55;;
46028;SDS011;31763;48.180;7.904;2022-07-15T07:07:46;5.88;;;2.75;;
46028;SDS011;31763;48.180;7.904;2022-07-15T07:10:13;4.75;;;2.58;;
46028;SDS011;31763;48.180;7.904;2022-07-15T07:12:41;3.67;;;2.55;;
46028;SDS011;31763;48.180;7.904;2022-07-15T07:15:08;9.98;;;2.75;;
46028;SDS011;31763;48.180;7.904;2022-07-15T07:17:36;4.13;;;2.65;;
46028;SDS011;31763;48.180;7.904;2022-07-15T07:20:03;4.15;;;2.70;;
46028;SDS011;31763;48.180;7.904;2022-07-15T07:22:30;4.15;;;2.75;;
46028;SDS011;31763;48.180;7.904;2022-07-15T07:24:58;3.83;;;2.47;;
46028;SDS011;31763;48.180;7.904;2022-07-15T07:27:26;4.28;;;2.50;;
46028;SDS011;31763;48.180;7.904;2022-07-15T07:29:53;5.50;;;2.83;;
46028;SDS011;31763;48.180;7.904;2022-07-15T07:32:20;5.20;;;3.03;;
46028;SDS011;31763;48.180;7.904;2022-07-15T07:34:47;7.03;;;2.83;;
46028;SDS011;31763;48.180;7.904;2022-07-15T07:37:15;5.43;;;2.50;;
46028;SDS011;31763;48.180;7.904;2022-07-15T07:39:42;2.90;;;2.33;;
46028;SDS011;31763;48.180;7.904;2022-07-15T07:42:10;4.50;;;2.45;;
46028;SDS011;31763;48.180;7.904;2022-07-15T07:44:38;4.90;;;2.60;;
46028;SDS011;31763;48.180;7.904;2022-07-15T07:47:05;4.72;;;2.65;;
46028;SDS011;31763;48.180;7.904;2022-07-15T07:49:39;5.05;;;2.55;;
46028;SDS011;31763;48.180;7.904;2022-07-15T07:52:07;5.47;;;2.80;;
46028;SDS011;31763;48.180;7.904;2022-07-15T07:54:34;4.85;;;2.92;;
46028;SDS011;31763;48.180;7.904;2022-07-15T07:57:01;3.80;;;2.83;;
46028;SDS011;31763;48.180;7.904;2022-07-15T07:59:29;3.70;;;2.70;;
46028;SDS011;31763;48.180;7.904;2022-07-15T08:01:57;5.60;;;2.50;;
46028;SDS011;31763;48.180;7.904;2022-07-15T08:04:25;6.85;;;3.00;;
46028;SDS011;31763;48.180;7.904;2022-07-15T08:06:52;5.38;;;3.10;;
46028;SDS011;31763;48.180;7.904;2022-07-15T08:09:19;5.93;;;3.40;;
46028;SDS011;31763;48.180;7.904;2022-07-15T08:11:46;11.10;;;2.97;;
46028;SDS011;31763;48.180;7.904;2022-07-15T08:14:14;7.53;;;2.90;;
46028;SDS011;31763;48.180;7.904;2022-07-15T08:16:41;4.65;;;2.80;;
46028;SDS011;31763;48.180;7.904;2022-07-15T08:19:09;5.53;;;3.22;;
46028;SDS011;31763;48.180;7.904;2022-07-15T08:21:42;11.45;;;2.85;;
46028;SDS011;31763;48.180;7.904;2022-07-15T08:24:09;4.10;;;2.58;;
46028;SDS011;31763;48.180;7.904;2022-07-15T08:26:38;5.05;;;2.60;;
46028;SDS011;31763;48.180;7.904;2022-07-15T08:29:05;5.95;;;2.67;;
46028;SDS011;31763;48.180;7.904;2022-07-15T08:31:36;4.28;;;2.60;;
46028;SDS011;31763;48.180;7.904;2022-07-15T08:34:04;7.65;;;2.78;;
46028;SDS011;31763;48.180;7.904;2022-07-15T08:36:32;9.40;;;2.88;;
46028;SDS011;31763;48.180;7.904;2022-07-15T08:38:59;5.97;;;2.30;;
46028;SDS011;31763;48.180;7.904;2022-07-15T08:41:28;7.68;;;2.58;;
46028;SDS011;31763;48.180;7.904;2022-07-15T08:43:55;10.07;;;3.28;;
46028;SDS011;31763;48.180;7.904;2022-07-15T08:46:23;8.60;;;2.42;;
46028;SDS011;31763;48.180;7.904;2022-07-15T08:51:21;5.50;;;2.60;;
46028;SDS011;31763;48.180;7.904;2022-07-15T08:53:50;4.72;;;2.47;;
46028;SDS011;31763;48.180;7.904;2022-07-15T08:56:18;6.68;;;2.30;;
46028;SDS011;31763;48.180;7.904;2022-07-15T08:58:46;3.85;;;2.30;;
46028;SDS011;31763;48.180;7.904;2022-07-15T09:01:29;5.43;;;2.22;;
46028;SDS011;31763;48.180;7.904;2022-07-15T09:03:58;4.63;;;2.38;;
46028;SDS011;31763;48.180;7.904;2022-07-15T09:06:29;11.35;;;2.85;;
46028;SDS011;31763;48.180;7.904;2022-07-15T09:11:54;4.85;;;2.30;;
46028;SDS011;31763;48.180;7.904;2022-07-15T09:14:32;8.13;;;2.63;;
46028;SDS011;31763;48.180;7.904;2022-07-15T09:22:24;4.32;;;2.45;;
46028;SDS011;31763;48.180;7.904;2022-07-15T09:25:03;3.78;;;2.10;;
46028;SDS011;31763;48.180;7.904;2022-07-15T09:27:36;4.78;;;2.38;;
46028;SDS011;31763;48.180;7.904;2022-07-15T09:30:22;7.80;;;2.72;;
46028;SDS011;31763;48.180;7.904;2022-07-15T09:33:10;9.00;;;2.90;;
46028;SDS011;31763;48.180;7.904;2022-07-15T09:36:21;5.15;;;2.63;;
46028;SDS011;31763;48.180;7.904;2022-07-15T09:41:23;8.23;;;3.08;;
46028;SDS011;31763;48.180;7.904;2022-07-15T09:44:14;4.47;;;2.60;;
46028;SDS011;31763;48.180;7.904;2022-07-15T09:54:32;7.05;;;2.60;;
46028;SDS011;31763;48.180;7.904;2022-07-15T09:57:03;7.75;;;2.92;;
46028;SDS011;31763;48.180;7.904;2022-07-15T09:59:34;7.20;;;2.60;;
46028;SDS011;31763;48.180;7.904;2022-07-15T10:02:06;8.40;;;2.28;;
46028;SDS011;31763;48.180;7.904;2022-07-15T10:04:34;8.40;;;2.50;;
46028;SDS011;31763;48.180;7.904;2022-07-15T10:07:02;4.53;;;2.53;;
46028;SDS011;31763;48.180;7.904;2022-07-15T10:09:50;6.22;;;2.67;;
46028;SDS011;31763;48.180;7.904;2022-07-15T10:12:18;6.40;;;2.53;;
46028;SDS011;31763;48.180;7.904;2022-07-15T10:20:17;6.70;;;2.50;;
46028;SDS011;31763;48.180;7.904;2022-07-15T10:25:31;5.90;;;2.47;;
46028;SDS011;31763;48.180;7.904;2022-07-15T10:30:41;8.88;;;2.88;;
46028;SDS011;31763;48.180;7.904;2022-07-15T10:33:11;6.95;;;2.60;;
46028;SDS011;31763;48.180;7.904;2022-07-15T10:41:02;4.82;;;2.60;;
46028;SDS011;31763;48.180;7.904;2022-07-15T10:43:51;4.20;;;2.33;;
46028;SDS011;31763;48.180;7.904;2022-07-15T10:46:21;5.20;;;2.75;;
46028;SDS011;31763;48.180;7.904;2022-07-15T10:49:26;6.28;;;2.88;;
46028;SDS011;31763;48.180;7.904;2022-07-15T10:54:09;5.88;;;2.40;;
46028;SDS011;31763;48.180;7.904;2022-07-15T10:56:57;3.63;;;2.42;;
46028;SDS011;31763;48.180;7.904;2022-07-15T10:59:24;4.90;;;2.42;;
46028;SDS011;31763;48.180;7.904;2022-07-15T11:04:28;4.97;;;2.47;;
46028;SDS011;31763;48.180;7.904;2022-07-15T11:12:24;6.18;;;2.63;;
46028;SDS011;31763;48.180;7.904;2022-07-15T11:15:17;4.78;;;2.80;;
46028;SDS011;31763;48.180;7.904;2022-07-15T11:17:46;4.75;;;2.72;;
46028;SDS011;31763;48.180;7.904;2022-07-15T11:20:28;5.80;;;2.38;;
46028;SDS011;31763;48.180;7.904;2022-07-15T11:23:00;3.97;;;2.20;;
46028;SDS011;31763;48.180;7.904;2022-07-15T11:25:32;6.65;;;2.60;;
46028;SDS011;31763;48.180;7.904;2022-07-15T11:30:50;5.82;;;2.55;;
46028;SDS011;31763;48.180;7.904;2022-07-15T11:33:21;5.30;;;2.63;;
46028;SDS011;31763;48.180;7.904;2022-07-15T11:36:02;4.82;;;2.45;;
46028;SDS011;31763;48.180;7.904;2022-07-15T11:38:33;4.45;;;2.50;;
46028;SDS011;31763;48.180;7.904;2022-07-15T11:41:05;6.22;;;2.75;;
46028;SDS011;31763;48.180;7.904;2022-07-15T11:44:00;4.53;;;2.70;;
46028;SDS011;31763;48.180;7.904;2022-07-15T11:46:48;4.18;;;2.70;;
46028;SDS011;31763;48.180;7.904;2022-07-15T11:49:26;4.85;;;2.60;;
46028;SDS011;31763;48.180;7.904;2022-07-15T11:51:54;5.05;;;2.80;;
46028;SDS011;31763;48.180;7.904;2022-07-15T11:54:22;7.50;;;2.80;;
46028;SDS011;31763;48.180;7.904;2022-07-15T11:56:56;5.03;;;2.80;;
46028;SDS011;31763;48.180;7.904;2022-07-15T11:59:24;4.07;;;2.60;;
46028;SDS011;31763;48.180;7.904;2022-07-15T12:02:08;4.78;;;2.63;;
46028;SDS011;31763;48.180;7.904;2022-07-15T12:04:37;3.40;;;2.53;;
46028;SDS011;31763;48.180;7.904;2022-07-15T12:07:06;5.75;;;2.67;;
46028;SDS011;31763;48.180;7.904;2022-07-15T12:09:40;4.93;;;2.70;;
46028;SDS011;31763;48.180;7.904;2022-07-15T12:12:09;3.85;;;2.70;;
46028;SDS011;31763;48.180;7.904;2022-07-15T12:14:36;5.72;;;2.60;;
46028;SDS011;31763;48.180;7.904;2022-07-15T12:17:04;4.15;;;2.63;;
46028;SDS011;31763;48.180;7.904;2022-07-15T12:19:32;6.90;;;2.65;;
46028;SDS011;31763;48.180;7.904;2022-07-15T12:22:04;4.07;;;2.67;;
46028;SDS011;31763;48.180;7.904;2022-07-15T12:24:42;3.65;;;2.60;;
46028;SDS011;31763;48.180;7.904;2022-07-15T12:27:12;6.75;;;2.55;;
46028;SDS011;31763;48.180;7.904;2022-07-15T12:29:39;6.22;;;2.58;;
46028;SDS011;31763;48.180;7.904;2022-07-15T12:32:27;7.43;;;3.03;;
46028;SDS011;31763;48.180;7.904;2022-07-15T12:34:58;7.40;;;2.75;;
46028;SDS011;31763;48.180;7.904;2022-07-15T12:42:46;5.45;;;2.65;;
46028;SDS011;31763;48.180;7.904;2022-07-15T12:45:28;3.97;;;2.45;;
46028;SDS011;31763;48.180;7.904;2022-07-15T12:53:21;3.70;;;2.70;;
46028;SDS011;31763;48.180;7.904;2022-07-15T12:55:52;2.65;;;2.40;;
46028;SDS011;31763;48.180;7.904;2022-07-15T12:58:24;5.70;;;2.50;;
46028;SDS011;31763;48.180;7.904;2022-07-15T13:00:53;2.83;;;2.30;;
46028;SDS011;31763;48.180;7.904;2022-07-15T13:03:41;5.70;;;2.60;;
46028;SDS011;31763;48.180;7.904;2022-07-15T13:06:09;6.25;;;2.60;;
46028;SDS011;31763;48.180;7.904;2022-07-15T13:08:38;5.45;;;2.35;;
46028;SDS011;31763;48.180;7.904;2022-07-15T13:11:07;4.47;;;2.50;;
46028;SDS011;31763;48.180;7.904;2022-07-15T13:13:35;3.13;;;2.60;;
46028;SDS011;31763;48.180;7.904;2022-07-15T13:16:04;5.30;;;2.40;;
46028;SDS011;31763;48.180;7.904;2022-07-15T13:18:33;4.28;;;2.40;;
46028;SDS011;31763;48.180;7.904;2022-07-15T13:21:02;3.97;;;2.40;;
46028;SDS011;31763;48.180;7.904;2022-07-15T13:23:30;5.18;;;2.47;;
46028;SDS011;31763;48.180;7.904;2022-07-15T13:25:57;7.13;;;2.30;;
46028;SDS011;31763;48.180;7.904;2022-07-15T13:28:25;6.68;;;2.63;;
46028;SDS011;31763;48.180;7.904;2022-07-15T13:30:52;5.78;;;2.75;;
46028;SDS011;31763;48.180;7.904;2022-07-15T13:33:20;3.55;;;2.30;;
46028;SDS011;31763;48.180;7.904;2022-07-15T13:35:48;4.05;;;2.50;;
46028;SDS011;31763;48.180;7.904;2022-07-15T13:38:15;7.63;;;2.70;;
46028;SDS011;31763;48.180;7.904;2022-07-15T13:40:43;5.35;;;2.80;;
46028;SDS011;31763;48.180;7.904;2022-07-15T13:43:10;6.47;;;2.70;;
46028;SDS011;31763;48.180;7.904;2022-07-15T13:45:37;6.22;;;2.40;;
46028;SDS011;31763;48.180;7.904;2022-07-15T13:48:12;7.30;;;2.40;;
46028;SDS011;31763;48.180;7.904;2022-07-15T13:50:39;15.50;;;3.85;;
46028;SDS011;31763;48.180;7.904;2022-07-15T13:53:25;10.95;;;2.92;;
46028;SDS011;31763;48.180;7.904;2022-07-15T13:55:53;20.90;;;3.72;;
46028;SDS011;31763;48.180;7.904;2022-07-15T13:58:20;27.48;;;4.57;;
46028;SDS011;31763;48.180;7.904;2022-07-15T14:00:48;25.27;;;4.47;;
46028;SDS011;31763;48.180;7.904;2022-07-15T14:03:16;5.40;;;2.72;;
46028;SDS011;31763;48.180;7.904;2022-07-15T14:05:44;4.53;;;2.45;;
46028;SDS011;31763;48.180;7.904;2022-07-15T14:08:11;4.40;;;2.53;;
46028;SDS011;31763;48.180;7.904;2022-07-15T14:10:38;6.22;;;2.33;;
46028;SDS011;31763;48.180;7.904;2022-07-15T14:13:06;4.97;;;2.60;;
46028;SDS011;31763;48.180;7.904;2022-07-15T14:15:33;7.93;;;2.38;;
46028;SDS011;31763;48.180;7.904;2022-07-15T14:18:03;5.22;;;2.63;;
46028;SDS011;31763;48.180;7.904;2022-07-15T14:20:31;4.78;;;2.63;;
46028;SDS011;31763;48.180;7.904;2022-07-15T14:22:58;6.00;;;2.65;;
46028;SDS011;31763;48.180;7.904;2022-07-15T14:25:26;8.30;;;2.65;;
46028;SDS011;31763;48.180;7.904;2022-07-15T14:27:53;4.57;;;2.47;;
46028;SDS011;31763;48.180;7.904;2022-07-15T14:30:21;7.25;;;2.80;;
46028;SDS011;31763;48.180;7.904;2022-07-15T14:32:49;3.45;;;2.10;;
46028;SDS011;31763;48.180;7.904;2022-07-15T14:35:18;6.43;;;2.47;;
46028;SDS011;31763;48.180;7.904;2022-07-15T14:37:47;3.88;;;2.60;;
46028;SDS011;31763;48.180;7.904;2022-07-15T14:40:15;3.95;;;2.70;;
46028;SDS011;31763;48.180;7.904;2022-07-15T14:42:42;5.70;;;2.63;;
46028;SDS011;31763;48.180;7.904;2022-07-15T14:45:10;4.43;;;2.60;;
46028;SDS011;31763;48.180;7.904;2022-07-15T14:47:37;5.30;;;2.70;;
46028;SDS011;31763;48.180;7.904;2022-07-15T14:50:04;5.03;;;2.40;;
46028;SDS011;31763;48.180;7.904;2022-07-15T14:52:32;5.93;;;2.58;;
46028;SDS011;31763;48.180;7.904;2022-07-15T14:54:59;5.70;;;2.55;;
46028;SDS011;31763;48.180;7.904;2022-07-15T14:57:27;6.65;;;2.50;;
46028;SDS011;31763;48.180;7.904;2022-07-15T14:59:54;4.80;;;2.50;;
46028;SDS011;31763;48.180;7.904;2022-07-15T15:02:22;9.70;;;2.50;;
46028;SDS011;31763;48.180;7.904;2022-07-15T15:04:50;7.13;;;2.42;;
46028;SDS011;31763;48.180;7.904;2022-07-15T15:07:17;3.55;;;2.70;;
46028;SDS011;31763;48.180;7.904;2022-07-15T15:09:44;4.15;;;2.22;;
46028;SDS011;31763;48.180;7.904;2022-07-15T15:12:12;3.53;;;2.25;;
46028;SDS011;31763;48.180;7.904;2022-07-15T15:14:39;4.70;;;2.15;;
46028;SDS011;31763;48.180;7.904;2022-07-15T15:17:06;4.50;;;2.47;;
46028;SDS011;31763;48.180;7.904;2022-07-15T15:19:35;8.20;;;2.28;;
46028;SDS011;31763;48.180;7.904;2022-07-15T15:22:03;3.33;;;1.90;;
46028;SDS011;31763;48.180;7.904;2022-07-15T15:24:31;7.63;;;3.22;;
46028;SDS011;31763;48.180;7.904;2022-07-15T15:26:58;3.72;;;2.20;;
46028;SDS011;31763;48.180;7.904;2022-07-15T15:29:28;4.90;;;2.03;;
46028;SDS011;31763;48.180;7.904;2022-07-15T15:31:55;4.45;;;2.38;;
46028;SDS011;31763;48.180;7.904;2022-07-15T15:34:23;3.08;;;2.13;;
46028;SDS011;31763;48.180;7.904;2022-07-15T15:36:51;3.13;;;1.90;;
46028;SDS011;31763;48.180;7.904;2022-07-15T15:39:18;4.53;;;2.25;;
46028;SDS011;31763;48.180;7.904;2022-07-15T15:41:45;2.42;;;1.92;;
46028;SDS011;31763;48.180;7.904;2022-07-15T15:44:13;4.38;;;2.15;;
46028;SDS011;31763;48.180;7.904;2022-07-15T15:46:40;4.85;;;1.98;;
46028;SDS011;31763;48.180;7.904;2022-07-15T15:49:08;3.25;;;2.10;;
46028;SDS011;31763;48.180;7.904;2022-07-15T15:51:35;4.00;;;2.63;;
46028;SDS011;31763;48.180;7.904;2022-07-15T15:54:02;3.47;;;2.00;;
46028;SDS011;31763;48.180;7.904;2022-07-15T15:56:29;4.82;;;2.50;;
46028;SDS011;31763;48.180;7.904;2022-07-15T15:58:57;3.90;;;2.15;;
46028;SDS011;31763;48.180;7.904;2022-07-15T16:01:24;4.38;;;2.00;;